Time;durP1;ratioP1;P1;durP2;ratioP2;P2;SDS_P1;SDS_P2;PMS_P1;PMS_P2;Temp;Humidity;BMP_temperature;BMP_pressure;BME280_temperature;BME280_humidity;BME280_pressure;Samples;Min_cycle;Max_cycle;Signal;HPM_P1;HPM_P2
2023/01/18 00:01:54;;;;;;;14.00;10.82;;;27.60;92.10;;;;;;5042911;28;20269;-55
2023/01/18 00:04:22;;;;;;;17.27;10.93;;;27.70;91.80;;;;;;5041857;28;20026;-57
2023/01/18 00:06:51;;;;;;;16.50;11.10;;;27.70;91.70;;;;;;5038532;28;20032;-56
2023/01/18 00:09:21;;;;;;;13.15;11.00;;;27.70;91.60;;;;;;5040393;28;20033;-60
2023/01/18 00:11:48;;;;;;;18.73;10.82;;;27.80;91.50;;;;;;5029358;28;20042;-58
2023/01/18 00:14:14;;;;;;;16.08;11.30;;;27.80;91.40;;;;;;5047478;28;20025;-57
2023/01/18 00:16:44;;;;;;;20.33;11.57;;;27.80;91.30;;;;;;5046897;28;20033;-58
2023/01/18 00:19:12;;;;;;;19.70;11.80;;;27.80;91.30;;;;;;5046601;28;20021;-55
2023/01/18 00:21:39;;;;;;;16.80;11.65;;;27.80;91.30;;;;;;5045621;28;20053;-56
2023/01/18 00:24:09;;;;;;;21.45;11.77;;;27.80;91.20;;;;;;5046965;28;20032;-55
2023/01/18 00:26:36;;;;;;;16.20;11.45;;;27.80;91.10;;;;;;5045118;28;20099;-57
2023/01/18 00:29:03;;;;;;;14.65;10.85;;;27.80;91.00;;;;;;5046998;28;20021;-54
2023/01/18 00:31:30;;;;;;;17.90;11.02;;;27.80;90.80;;;;;;5046810;28;20217;-56
2023/01/18 00:33:57;;;;;;;14.70;10.30;;;27.80;90.80;;;;;;5046613;28;20306;-54
2023/01/18 00:36:24;;;;;;;20.88;12.07;;;27.80;90.80;;;;;;5040149;28;20064;-57
2023/01/18 00:38:51;;;;;;;14.68;11.65;;;27.80;90.70;;;;;;5041069;28;20028;-54
2023/01/18 00:41:18;;;;;;;22.38;11.80;;;27.80;90.70;;;;;;5046710;28;20261;-62
2023/01/18 00:43:46;;;;;;;18.50;10.63;;;27.80;90.60;;;;;;5029144;28;20313;-56
2023/01/18 00:46:15;;;;;;;16.98;11.40;;;27.80;90.60;;;;;;5045898;28;20045;-51
2023/01/18 00:48:42;;;;;;;14.65;10.90;;;27.80;90.50;;;;;;5046641;28;20029;-54
2023/01/18 00:51:13;;;;;;;13.70;11.05;;;27.80;90.40;;;;;;5046570;28;20191;-57
2023/01/18 00:53:43;;;;;;;17.83;11.20;;;27.80;90.30;;;;;;5046394;28;20310;-57
2023/01/18 00:56:13;;;;;;;19.38;11.13;;;27.80;90.30;;;;;;5046653;28;20092;-55
2023/01/18 00:58:40;;;;;;;15.27;10.40;;;27.80;90.40;;;;;;5046494;28;20041;-55
2023/01/18 01:01:08;;;;;;;17.33;11.00;;;27.80;90.30;;;;;;5038983;28;20021;-55
2023/01/18 01:06:44;;;;;;;18.95;11.48;;;27.80;90.30;;;;;;5030543;28;20102;-56
2023/01/18 01:09:30;;;;;;;14.70;10.55;;;27.80;90.20;;;;;;5039019;28;20032;-53
2023/01/18 01:26:07;;;;;;;18.25;10.70;;;27.80;89.70;;;;;;5043785;28;20048;-54
2023/01/18 01:28:43;;;;;;;15.88;10.27;;;27.70;89.50;;;;;;5043635;28;20033;-53
2023/01/18 01:31:21;;;;;;;18.95;10.50;;;27.70;89.40;;;;;;5026280;28;20029;-56
2023/01/18 01:33:54;;;;;;;18.27;11.10;;;27.80;89.40;;;;;;5044184;28;20258;-56
2023/01/18 01:36:39;;;;;;;;;;;;;;;;;;;;;
2023/01/18 01:39:31;;;;;;;18.40;11.18;;;27.70;89.50;;;;;;5043555;28;20036;-55
2023/01/18 01:42:00;;;;;;;14.50;11.13;;;27.80;89.60;;;;;;5033435;28;20038;-54
2023/01/18 01:44:28;;;;;;;18.27;11.15;;;27.70;89.60;;;;;;5044536;28;20301;-56
2023/01/18 01:47:27;;;;;;;15.38;11.15;;;27.70;89.60;;;;;;5030412;28;20101;-61
2023/01/18 01:49:59;;;;;;;16.98;11.45;;;27.80;89.70;;;;;;5045621;28;20321;-53
2023/01/18 01:52:40;;;;;;;18.40;11.38;;;27.70;89.60;;;;;;5033994;28;20030;-55
2023/01/18 01:55:23;;;;;;;17.00;11.18;;;27.70;89.60;;;;;;5045391;28;20067;-53
2023/01/18 01:58:21;;;;;;;15.45;11.43;;;27.70;89.60;;;;;;5044679;28;20032;-60
2023/01/18 02:00:53;;;;;;;16.15;11.00;;;27.70;89.70;;;;;;5042213;28;20021;-58
2023/01/18 02:03:21;;;;;;;14.25;10.80;;;27.70;89.80;;;;;;5043019;28;20289;-58
2023/01/18 02:06:32;;;;;;;13.60;10.90;;;27.70;89.90;;;;;;5045664;28;20064;-52
2023/01/18 02:09:30;;;;;;;15.82;10.77;;;27.70;89.90;;;;;;5027437;28;20033;-53
2023/01/18 02:11:56;;;;;;;17.17;10.93;;;27.70;89.90;;;;;;5002232;28;20038;-52
2023/01/18 02:14:31;;;;;;;12.15;10.57;;;27.70;89.90;;;;;;5025424;28;20049;-56
2023/01/18 02:17:37;;;;;;;15.98;10.38;;;27.70;90.00;;;;;;5026850;28;20029;-54
2023/01/18 02:20:37;;;;;;;17.30;11.35;;;27.60;90.00;;;;;;4993360;28;20034;-57
2023/01/18 02:23:24;;;;;;;17.67;12.27;;;27.60;90.10;;;;;;4983482;28;20027;-53
2023/01/18 02:26:32;;;;;;;27.40;24.27;;;27.60;90.30;;;;;;5025100;28;20044;-58
2023/01/18 02:29:24;;;;;;;33.00;26.90;;;27.70;90.40;;;;;;5017406;28;20076;-55
2023/01/18 02:32:18;;;;;;;22.92;20.52;;;27.60;90.40;;;;;;5034474;28;20100;-53
2023/01/18 02:35:06;;;;;;;27.17;20.67;;;27.60;90.30;;;;;;5043566;28;20203;-56
2023/01/18 02:37:32;;;;;;;25.77;20.02;;;27.60;90.30;;;;;;5044558;28;20036;-64
2023/01/18 02:40:21;;;;;;;22.55;18.05;;;27.60;90.20;;;;;;5044914;28;20076;-62
2023/01/18 02:48:23;;;;;;;18.90;13.07;;;27.60;90.30;;;;;;5044062;28;20028;-54
2023/01/18 02:50:50;;;;;;;19.65;11.70;;;27.60;90.30;;;;;;5031419;28;20021;-50
2023/01/18 02:53:17;;;;;;;16.73;11.63;;;27.60;90.40;;;;;;5038340;28;20068;-51
2023/01/18 02:56:04;;;;;;;17.50;11.88;;;27.60;90.40;;;;;;5040389;28;20115;-53
2023/01/18 02:58:46;;;;;;;16.55;11.00;;;27.60;90.50;;;;;;5040676;28;20052;-52
2023/01/18 03:01:54;;;;;;;15.68;10.48;;;27.60;90.50;;;;;;5039722;28;20087;-54
2023/01/18 03:04:28;;;;;;;16.70;10.18;;;27.60;90.40;;;;;;5008695;28;20306;-55
2023/01/18 03:07:03;;;;;;;16.33;9.32;;;27.50;90.40;;;;;;5037969;28;20037;-61
2023/01/18 03:09:30;;;;;;;16.42;9.60;;;27.50;90.40;;;;;;5035412;28;20049;-54
2023/01/18 03:12:47;;;;;;;16.75;8.75;;;27.50;90.40;;;;;;5024828;28;20018;-53
2023/01/18 03:15:26;;;;;;;16.98;8.50;;;27.50;90.40;;;;;;4963960;29;20035;-57
2023/01/18 03:17:56;;;;;;;14.05;8.95;;;27.50;90.40;;;;;;4963891;29;20046;-57
2023/01/18 03:20:31;;;;;;;18.35;9.30;;;27.50;90.50;;;;;;5004009;28;20046;-53
2023/01/18 03:25:56;;;;;;;14.65;8.77;;;27.50;90.50;;;;;;5023946;28;20049;-53
2023/01/18 03:34:16;;;;;;;13.40;9.50;;;27.40;90.30;;;;;;5033780;28;20132;-52
2023/01/18 03:36:46;;;;;;;12.30;8.45;;;27.40;90.20;;;;;;5043535;28;20041;-51
2023/01/18 03:39:29;;;;;;;14.30;9.23;;;27.40;90.20;;;;;;5038895;28;20033;-54
2023/01/18 03:42:06;;;;;;;20.40;9.93;;;27.40;90.20;;;;;;5028034;28;20030;-52
2023/01/18 03:44:41;;;;;;;20.30;9.25;;;27.40;90.10;;;;;;5028030;28;20052;-53
2023/01/18 03:47:08;;;;;;;12.82;8.82;;;27.30;90.10;;;;;;5027861;28;20038;-51
2023/01/18 03:49:35;;;;;;;13.10;8.90;;;27.40;90.10;;;;;;5027961;28;20029;-48
2023/01/18 03:52:26;;;;;;;14.70;9.15;;;27.30;90.10;;;;;;5027909;28;20034;-51
2023/01/18 03:55:04;;;;;;;18.30;9.90;;;27.30;90.10;;;;;;5027970;28;20051;-55
2023/01/18 03:58:06;;;;;;;14.18;9.25;;;27.30;90.10;;;;;;5027718;28;20191;-54
2023/01/18 04:00:33;;;;;;;38.03;10.35;;;27.30;90.10;;;;;;4996425;28;20034;-54
2023/01/18 04:03:00;;;;;;;18.15;9.75;;;27.30;90.10;;;;;;5038140;28;20045;-53
2023/01/18 04:05:27;;;;;;;13.23;9.38;;;27.30;90.10;;;;;;5034415;28;20056;-53
2023/01/18 04:07:53;;;;;;;12.23;8.88;;;27.30;90.00;;;;;;5038271;28;20045;-50
2023/01/18 04:10:20;;;;;;;14.25;9.23;;;27.30;90.00;;;;;;5027976;28;20332;-56
2023/01/18 04:12:46;;;;;;;15.07;8.88;;;27.30;89.90;;;;;;5026959;28;20045;-54
2023/01/18 04:15:13;;;;;;;16.60;9.13;;;27.30;89.90;;;;;;5027771;28;20036;-55
2023/01/18 04:17:40;;;;;;;12.05;9.00;;;27.30;90.00;;;;;;5031128;28;20029;-53
2023/01/18 04:20:07;;;;;;;12.90;9.00;;;27.30;90.00;;;;;;5036733;28;20217;-58
2023/01/18 04:22:34;;;;;;;14.25;9.40;;;27.30;90.00;;;;;;5043687;28;20368;-55
2023/01/18 04:25:00;;;;;;;16.02;9.02;;;27.30;90.00;;;;;;5047322;28;20055;-55
2023/01/18 04:27:27;;;;;;;14.27;9.25;;;27.30;90.10;;;;;;5046698;28;20233;-53
2023/01/18 04:29:53;;;;;;;14.48;9.52;;;27.30;90.10;;;;;;5046538;28;20091;-52
2023/01/18 04:32:20;;;;;;;17.98;9.63;;;27.30;90.10;;;;;;5046883;28;20029;-57
2023/01/18 04:34:47;;;;;;;15.10;8.95;;;27.30;90.10;;;;;;5026778;28;20214;-56
2023/01/18 04:37:13;;;;;;;16.58;9.25;;;27.30;90.20;;;;;;5039537;28;20028;-53
2023/01/18 04:39:41;;;;;;;15.38;9.65;;;27.30;90.20;;;;;;5034165;28;20029;-55
2023/01/18 04:42:08;;;;;;;18.98;9.18;;;27.20;90.20;;;;;;5043128;28;20022;-55
2023/01/18 04:44:34;;;;;;;15.45;9.85;;;27.20;90.20;;;;;;5037051;28;20298;-52
2023/01/18 04:47:01;;;;;;;14.52;10.00;;;27.20;90.20;;;;;;5046583;28;20037;-58
2023/01/18 04:49:28;;;;;;;12.23;9.48;;;27.20;90.30;;;;;;5042267;28;20234;-58
2023/01/18 04:51:54;;;;;;;14.15;9.43;;;27.20;90.30;;;;;;5043600;28;20060;-54
2023/01/18 04:54:21;;;;;;;13.30;9.50;;;27.20;90.40;;;;;;5043383;28;20029;-54
2023/01/18 04:56:47;;;;;;;11.15;9.82;;;27.20;90.50;;;;;;5046275;28;20025;-55
2023/01/18 04:59:15;;;;;;;13.93;9.75;;;27.20;90.50;;;;;;5046724;28;20075;-56
2023/01/18 05:01:42;;;;;;;16.30;10.00;;;27.20;90.60;;;;;;5046206;28;20273;-56
2023/01/18 05:04:09;;;;;;;14.15;10.07;;;27.10;90.60;;;;;;5044757;28;20083;-61
2023/01/18 05:06:35;;;;;;;13.23;9.70;;;27.10;90.70;;;;;;5044248;28;20089;-53
2023/01/18 05:09:04;;;;;;;14.02;10.00;;;27.10;90.70;;;;;;5044395;28;20071;-54
2023/01/18 05:11:30;;;;;;;16.10;10.13;;;27.10;90.70;;;;;;5045158;28;20017;-55
2023/01/18 05:13:57;;;;;;;14.80;9.63;;;27.10;90.80;;;;;;5046227;28;20033;-55
2023/01/18 05:16:24;;;;;;;18.45;9.85;;;27.10;91.10;;;;;;5045961;28;20038;-52
2023/01/18 05:18:51;;;;;;;17.83;9.73;;;27.10;90.80;;;;;;5046000;28;20037;-56
2023/01/18 05:21:17;;;;;;;18.85;10.52;;;27.10;90.80;;;;;;5045900;28;20136;-54
2023/01/18 05:23:44;;;;;;;13.18;9.88;;;27.00;90.70;;;;;;5046147;28;20033;-54
2023/01/18 05:26:17;;;;;;;17.95;9.48;;;27.10;90.70;;;;;;5045464;28;20057;-55
2023/01/18 05:28:44;;;;;;;17.05;10.05;;;27.00;90.60;;;;;;5045890;28;20052;-54
2023/01/18 05:31:12;;;;;;;18.10;9.98;;;27.00;90.60;;;;;;5045634;28;20021;-55
2023/01/18 05:33:39;;;;;;;17.15;9.25;;;26.90;90.50;;;;;;5045781;28;20028;-54
2023/01/18 05:36:06;;;;;;;14.40;9.20;;;27.00;90.40;;;;;;5045773;28;20048;-51
2023/01/18 05:38:33;;;;;;;14.65;8.25;;;27.00;90.30;;;;;;5045701;28;20053;-53
2023/01/18 05:41:00;;;;;;;12.90;8.75;;;27.00;90.20;;;;;;5045440;28;20057;-50
2023/01/18 05:43:27;;;;;;;17.63;8.38;;;26.90;90.10;;;;;;5045554;28;20092;-55
2023/01/18 05:45:54;;;;;;;15.52;8.75;;;26.90;90.00;;;;;;5045380;28;20045;-57
2023/01/18 05:48:22;;;;;;;13.48;8.70;;;26.90;90.00;;;;;;5045350;28;20021;-52
2023/01/18 05:50:49;;;;;;;16.38;8.73;;;26.90;90.20;;;;;;5045326;28;20305;-52
2023/01/18 05:53:19;;;;;;;15.27;8.88;;;26.90;89.90;;;;;;5045744;28;20032;-55
2023/01/18 05:56:03;;;;;;;15.15;8.23;;;26.90;89.80;;;;;;5045208;28;20025;-55
2023/01/18 05:58:31;;;;;;;23.45;8.70;;;26.90;89.60;;;;;;5045493;28;20083;-52
2023/01/18 06:00:57;;;;;;;17.00;8.85;;;26.90;89.60;;;;;;5045017;28;20029;-52
2023/01/18 06:03:24;;;;;;;14.75;8.77;;;26.90;89.40;;;;;;5045049;28;20049;-51
2023/01/18 06:05:52;;;;;;;11.73;8.20;;;26.90;89.30;;;;;;5044963;28;20025;-49
2023/01/18 06:08:19;;;;;;;13.40;8.75;;;26.90;89.30;;;;;;5044731;28;20032;-53
2023/01/18 06:10:54;;;;;;;13.23;8.95;;;26.90;89.20;;;;;;5045197;28;20033;-52
2023/01/18 06:13:23;;;;;;;14.38;9.02;;;26.90;89.30;;;;;;5044993;28;20028;-54
2023/01/18 06:15:53;;;;;;;12.68;8.90;;;26.90;89.30;;;;;;5045074;28;20036;-54
2023/01/18 06:18:21;;;;;;;14.32;8.60;;;26.90;89.30;;;;;;5044939;28;20221;-54
2023/01/18 06:20:48;;;;;;;11.90;9.02;;;26.90;89.30;;;;;;5044748;28;20029;-57
2023/01/18 06:23:14;;;;;;;14.35;8.38;;;26.90;89.30;;;;;;5044522;28;20033;-56
2023/01/18 06:25:41;;;;;;;13.07;9.15;;;26.90;89.20;;;;;;5044521;28;20203;-57
2023/01/18 06:28:10;;;;;;;14.43;8.38;;;26.90;89.20;;;;;;5044345;28;20049;-58
2023/01/18 06:30:37;;;;;;;13.52;8.32;;;26.90;89.30;;;;;;5044487;28;20245;-56
2023/01/18 06:33:05;;;;;;;14.75;8.85;;;26.90;89.40;;;;;;5044516;28;20206;-58
2023/01/18 06:35:37;;;;;;;11.48;8.02;;;26.90;89.40;;;;;;5044518;28;20048;-52
2023/01/18 06:38:04;;;;;;;13.07;7.95;;;26.90;89.40;;;;;;5044626;28;20109;-52
2023/01/18 06:40:31;;;;;;;13.40;8.50;;;26.90;89.20;;;;;;5044479;28;20040;-53
2023/01/18 06:42:57;;;;;;;14.73;8.57;;;26.90;89.10;;;;;;5044616;28;20029;-53
2023/01/18 06:45:24;;;;;;;12.73;8.63;;;26.90;88.80;;;;;;5044691;28;20033;-57
2023/01/18 06:47:52;;;;;;;26.67;8.63;;;26.90;88.60;;;;;;5044238;28;20322;-54
2023/01/18 06:50:19;;;;;;;14.90;8.13;;;26.90;88.50;;;;;;5044742;28;20034;-59
2023/01/18 06:52:45;;;;;;;20.02;8.63;;;26.90;88.40;;;;;;5044207;28;20318;-56
2023/01/18 06:55:13;;;;;;;14.32;8.40;;;26.90;88.50;;;;;;5044770;28;20041;-56
2023/01/18 06:57:40;;;;;;;13.32;7.72;;;26.90;88.40;;;;;;5044170;28;20265;-56
2023/01/18 07:00:08;;;;;;;14.57;8.50;;;26.90;88.40;;;;;;5044364;28;20045;-57
2023/01/18 07:02:35;;;;;;;15.88;8.63;;;26.90;88.40;;;;;;5044321;28;20060;-54
2023/01/18 07:05:03;;;;;;;23.10;8.30;;;26.90;88.30;;;;;;5044285;28;20033;-49
2023/01/18 07:07:29;;;;;;;14.32;8.32;;;26.90;88.20;;;;;;5044187;28;20059;-55
2023/01/18 07:09:56;;;;;;;10.65;7.97;;;26.90;88.10;;;;;;5044447;28;20021;-54
2023/01/18 07:12:22;;;;;;;10.25;7.20;;;26.90;88.00;;;;;;5044012;28;20030;-60
2023/01/18 07:14:50;;;;;;;13.95;7.80;;;26.90;87.90;;;;;;5043167;28;20250;-58
2023/01/18 07:17:17;;;;;;;13.15;7.55;;;26.90;88.00;;;;;;5043847;28;20230;-58
2023/01/18 07:19:44;;;;;;;17.13;8.60;;;26.90;88.00;;;;;;5044159;28;20025;-59
2023/01/18 07:22:12;;;;;;;13.20;7.57;;;26.90;88.00;;;;;;5043608;28;20013;-62
2023/01/18 07:24:38;;;;;;;15.32;7.93;;;26.90;88.00;;;;;;5044131;28;20246;-62
2023/01/18 07:27:05;;;;;;;13.00;8.35;;;26.90;88.00;;;;;;5042809;28;20060;-52
2023/01/18 07:29:31;;;;;;;11.95;7.97;;;26.90;88.00;;;;;;5043309;28;20025;-56
2023/01/18 07:31:59;;;;;;;17.30;7.78;;;26.90;88.20;;;;;;5041649;28;20057;-52
2023/01/18 07:34:26;;;;;;;14.77;7.68;;;26.90;88.30;;;;;;5042921;28;20025;-52
2023/01/18 07:36:53;;;;;;;11.02;7.65;;;26.90;88.40;;;;;;5042747;28;20045;-51
2023/01/18 07:39:19;;;;;;;12.23;7.47;;;26.90;88.50;;;;;;5041155;28;20302;-55
2023/01/18 07:41:46;;;;;;;12.88;8.07;;;26.90;88.50;;;;;;5043834;28;20031;-52
2023/01/18 07:44:13;;;;;;;13.27;7.50;;;26.90;88.50;;;;;;5043648;28;20174;-53
2023/01/18 07:46:41;;;;;;;15.55;8.20;;;26.90;88.50;;;;;;5043522;28;20040;-51
2023/01/18 07:49:08;;;;;;;16.50;7.78;;;26.90;88.40;;;;;;5043139;28;20072;-52
2023/01/18 07:51:35;;;;;;;13.23;7.50;;;26.90;88.50;;;;;;5041919;28;20021;-54
2023/01/18 07:54:02;;;;;;;14.70;7.40;;;26.90;88.50;;;;;;5043656;28;20029;-54
2023/01/18 07:56:31;;;;;;;14.52;7.63;;;26.90;88.40;;;;;;5043516;28;20039;-55
2023/01/18 07:58:58;;;;;;;11.35;7.28;;;26.90;88.50;;;;;;5043593;28;20057;-51
2023/01/18 08:01:25;;;;;;;14.75;7.45;;;26.90;88.60;;;;;;5043560;28;20029;-48
2023/01/18 08:03:53;;;;;;;13.00;7.57;;;26.90;88.60;;;;;;5043819;28;20029;-49
2023/01/18 08:06:25;;;;;;;13.30;7.35;;;26.90;88.50;;;;;;5042200;28;20029;-54
2023/01/18 08:08:53;;;;;;;12.55;7.95;;;26.90;88.60;;;;;;5041610;28;20029;-55
2023/01/18 08:11:20;;;;;;;27.08;8.35;;;26.90;88.50;;;;;;5043215;28;20057;-55
2023/01/18 08:13:48;;;;;;;12.77;7.38;;;26.90;88.50;;;;;;5043389;28;20060;-52
2023/01/18 08:16:15;;;;;;;15.80;7.47;;;26.90;88.40;;;;;;5042574;28;20029;-54
2023/01/18 08:18:43;;;;;;;20.52;8.50;;;26.90;88.40;;;;;;5043477;28;20030;-52
2023/01/18 08:21:11;;;;;;;15.25;7.90;;;26.90;88.50;;;;;;5043133;28;20032;-55
2023/01/18 08:23:39;;;;;;;14.57;7.28;;;26.90;88.50;;;;;;5043297;28;20071;-56
2023/01/18 08:26:07;;;;;;;16.73;7.13;;;26.90;88.50;;;;;;5046252;28;20025;-53
2023/01/18 08:28:33;;;;;;;14.60;7.30;;;26.90;88.60;;;;;;5047183;28;20168;-55
2023/01/18 08:31:29;;;;;;;11.80;7.30;;;26.80;88.50;;;;;;5045660;28;20025;-51
2023/01/18 08:33:56;;;;;;;21.00;7.60;;;26.90;88.60;;;;;;5014724;28;20037;-54
2023/01/18 08:36:25;;;;;;;16.80;7.45;;;26.80;88.60;;;;;;5036897;28;20055;-54
2023/01/18 08:38:55;;;;;;;13.35;6.97;;;26.90;88.80;;;;;;5044737;28;20310;-53
2023/01/18 08:41:30;;;;;;;12.05;7.05;;;26.80;88.70;;;;;;5046159;28;20064;-51
2023/01/18 08:43:58;;;;;;;11.52;6.57;;;26.80;88.70;;;;;;5046812;28;20060;-53
2023/01/18 08:46:25;;;;;;;12.00;7.18;;;26.80;88.70;;;;;;5045282;28;20017;-49
2023/01/18 08:48:56;;;;;;;13.70;6.85;;;26.80;88.80;;;;;;5046612;28;20029;-53
2023/01/18 08:51:24;;;;;;;12.75;6.60;;;26.80;88.80;;;;;;5046737;28;20237;-51
2023/01/18 08:53:53;;;;;;;15.02;7.05;;;26.80;88.80;;;;;;5046574;28;20032;-53
2023/01/18 08:56:20;;;;;;;11.32;7.25;;;26.80;88.90;;;;;;5046357;28;20036;-52
2023/01/18 08:58:47;;;;;;;16.38;6.68;;;26.80;89.00;;;;;;5046201;28;20280;-57
2023/01/18 09:01:13;;;;;;;17.02;7.28;;;26.80;89.00;;;;;;5046301;28;20380;-56
2023/01/18 09:03:41;;;;;;;15.60;6.50;;;26.80;89.00;;;;;;5045581;28;20108;-52
2023/01/18 09:06:08;;;;;;;11.48;7.22;;;26.80;89.00;;;;;;5044524;28;20041;-52
2023/01/18 09:08:35;;;;;;;13.30;7.15;;;26.80;89.00;;;;;;5042552;28;20052;-61
2023/01/18 09:11:07;;;;;;;12.48;6.57;;;26.80;89.00;;;;;;5045072;28;20017;-52
2023/01/18 09:13:34;;;;;;;11.18;6.82;;;26.70;89.00;;;;;;5040934;28;20036;-57
2023/01/18 09:16:03;;;;;;;10.10;6.80;;;26.80;89.10;;;;;;5037702;28;20083;-57
2023/01/18 09:18:30;;;;;;;13.60;7.22;;;26.70;89.10;;;;;;5031514;28;20101;-59
2023/01/18 09:20:58;;;;;;;14.02;7.30;;;26.70;89.20;;;;;;5034782;28;20254;-54
2023/01/18 09:23:25;;;;;;;10.13;7.00;;;26.70;89.20;;;;;;5026254;28;20225;-52
2023/01/18 09:26:07;;;;;;;12.18;6.65;;;26.70;89.30;;;;;;5026082;28;20037;-50
2023/01/18 09:28:35;;;;;;;;;;;26.70;89.40;;;;;;5026421;28;20054;-56
2023/01/18 09:31:05;;;;;;;27.40;7.38;;;26.70;89.50;;;;;;5026044;28;19945;-53
2023/01/18 09:33:31;;;;;;;12.20;7.40;;;26.70;89.50;;;;;;5025790;28;20290;-53
2023/01/18 09:36:03;;;;;;;12.52;7.00;;;26.70;89.50;;;;;;5025482;28;20108;-54
2023/01/18 09:38:35;;;;;;;17.35;7.35;;;26.70;89.60;;;;;;5026125;28;20109;-55
2023/01/18 09:41:02;;;;;;;;;;;26.70;89.70;;;;;;5026058;28;20029;-54
2023/01/18 09:43:43;;;;;;;12.68;7.35;;;26.70;89.70;;;;;;5025584;28;19914;-56
2023/01/18 09:46:21;;;;;;;14.20;7.03;;;26.60;89.70;;;;;;5025471;28;20029;-55
2023/01/18 09:49:27;;;;;;;13.65;7.28;;;26.60;89.70;;;;;;5025788;28;20075;-55
2023/01/18 09:52:06;;;;;;;10.98;6.97;;;26.60;89.80;;;;;;5008745;28;20064;-52
2023/01/18 09:54:50;;;;;;;12.65;7.07;;;26.60;89.80;;;;;;5025809;28;20262;-56
2023/01/18 09:57:45;;;;;;;12.43;7.10;;;26.60;89.80;;;;;;5025440;28;20022;-54
2023/01/18 10:00:25;;;;;;;14.70;6.75;;;26.60;89.70;;;;;;4998791;28;20326;-58
2023/01/18 10:03:03;;;;;;;10.88;7.25;;;26.60;89.50;;;;;;5028003;28;20014;-57
2023/01/18 10:05:35;;;;;;;14.20;7.20;;;26.60;89.70;;;;;;5029665;28;20033;-52
2023/01/18 10:08:17;;;;;;;17.40;7.68;;;26.60;89.80;;;;;;5034686;28;20014;-53
2023/01/18 10:11:18;;;;;;;13.55;7.40;;;26.60;89.80;;;;;;5038574;28;20048;-54
2023/01/18 10:13:58;;;;;;;14.32;7.70;;;26.60;89.90;;;;;;5022279;28;20271;-53
2023/01/18 10:16:25;;;;;;;13.32;6.90;;;26.60;90.00;;;;;;5025102;28;20030;-54
2023/01/18 10:18:56;;;;;;;11.70;6.50;;;26.60;89.90;;;;;;5033030;28;20044;-59
2023/01/18 10:21:30;;;;;;;14.90;7.00;;;26.60;89.80;;;;;;5045092;28;20037;-59
2023/01/18 10:24:29;;;;;;;12.15;7.43;;;26.60;89.90;;;;;;5034096;28;20038;-57
2023/01/18 10:27:23;;;;;;;21.10;7.93;;;26.60;89.90;;;;;;4972464;28;20333;-52
2023/01/18 10:30:11;;;;;;;13.95;7.38;;;26.60;89.70;;;;;;5037515;28;20044;-53
2023/01/18 10:32:41;;;;;;;18.35;7.60;;;26.60;89.70;;;;;;5044449;28;20029;-59
2023/01/18 10:35:39;;;;;;;16.58;8.02;;;26.60;89.70;;;;;;5044944;28;20198;-58
2023/01/18 10:38:11;;;;;;;12.98;7.40;;;26.60;89.70;;;;;;5044677;28;20057;-48
2023/01/18 10:40:39;;;;;;;12.02;6.80;;;26.60;89.60;;;;;;5044478;28;20332;-54
2023/01/18 10:43:14;;;;;;;12.20;7.35;;;26.60;89.60;;;;;;5044174;28;20035;-54
2023/01/18 10:45:40;;;;;;;12.02;8.15;;;26.60;89.60;;;;;;5044273;28;20044;-54
2023/01/18 10:48:24;;;;;;;16.48;7.80;;;26.60;89.50;;;;;;5037417;28;20021;-55
2023/01/18 10:50:57;;;;;;;15.90;7.65;;;26.60;89.50;;;;;;5037199;28;20080;-53
2023/01/18 10:53:23;;;;;;;17.75;7.60;;;26.60;89.40;;;;;;5042518;28;20041;-55
2023/01/18 10:56:11;;;;;;;12.10;6.80;;;26.60;89.00;;;;;;5026368;28;20199;-51
2023/01/18 10:58:49;;;;;;;14.38;7.00;;;26.60;89.00;;;;;;5024342;28;20437;-54
2023/01/18 11:01:22;;;;;;;13.20;6.95;;;26.60;88.90;;;;;;5035346;28;20029;-53
2023/01/18 11:04:07;;;;;;;16.13;7.57;;;26.60;88.80;;;;;;5031135;28;20053;-58
2023/01/18 11:06:49;;;;;;;24.88;7.28;;;26.60;88.70;;;;;;5035077;28;20361;-56
2023/01/18 11:09:50;;;;;;;14.88;7.20;;;26.60;88.60;;;;;;5032337;28;20100;-54
2023/01/18 11:12:37;;;;;;;17.33;8.60;;;26.60;88.40;;;;;;5032851;28;20022;-56
2023/01/18 11:15:16;;;;;;;14.52;7.63;;;26.60;88.50;;;;;;5024663;28;20034;-56
2023/01/18 11:17:59;;;;;;;17.05;8.10;;;26.60;88.40;;;;;;5024114;28;20364;-56
2023/01/18 11:20:48;;;;;;;20.77;7.82;;;26.60;88.50;;;;;;5024654;28;20045;-60
2023/01/18 11:23:19;;;;;;;17.40;7.57;;;26.60;88.70;;;;;;5023801;28;20022;-55
2023/01/18 11:26:16;;;;;;;16.42;7.85;;;26.60;88.70;;;;;;5041755;28;20206;-52
2023/01/18 11:29:06;;;;;;;14.20;8.20;;;26.50;89.00;;;;;;5029834;28;20060;-53
2023/01/18 11:31:45;;;;;;;18.02;8.00;;;26.50;89.10;;;;;;5035060;28;20033;-53
2023/01/18 11:34:34;;;;;;;15.35;8.05;;;26.50;89.00;;;;;;5036271;28;20017;-56
2023/01/18 11:37:01;;;;;;;16.35;7.43;;;26.50;89.10;;;;;;5031785;28;20041;-56
2023/01/18 11:39:40;;;;;;;15.55;7.82;;;26.60;89.00;;;;;;5034991;28;20037;-55
2023/01/18 11:42:16;;;;;;;13.80;8.20;;;26.50;88.90;;;;;;5027693;28;20025;-57
2023/01/18 11:45:04;;;;;;;16.60;8.57;;;26.50;88.90;;;;;;5024097;28;20087;-53
2023/01/18 11:48:00;;;;;;;13.77;8.30;;;26.60;89.00;;;;;;5010776;28;20322;-57
2023/01/18 11:50:33;;;;;;;11.23;8.00;;;26.60;89.10;;;;;;5016028;28;20049;-57
2023/01/18 11:53:40;;;;;;;15.90;7.88;;;26.60;89.20;;;;;;5030818;28;20053;-53
2023/01/18 11:56:18;;;;;;;23.38;8.55;;;26.60;89.20;;;;;;5013115;28;21438;-57
2023/01/18 11:58:44;;;;;;;19.50;7.97;;;26.60;89.50;;;;;;5030708;28;20053;-52
2023/01/18 12:01:49;;;;;;;31.20;9.68;;;26.60;89.60;;;;;;5033418;28;20052;-53
2023/01/18 12:04:51;;;;;;;13.35;8.18;;;26.60;89.80;;;;;;5038256;28;20037;-52
2023/01/18 12:07:26;;;;;;;14.32;9.20;;;26.60;89.90;;;;;;5034517;28;20032;-53
2023/01/18 12:09:59;;;;;;;14.95;8.93;;;26.60;90.00;;;;;;5031711;28;20314;-56
2023/01/18 12:12:28;;;;;;;20.70;10.25;;;26.60;90.10;;;;;;5039029;28;20025;-49
2023/01/18 12:15:42;;;;;;;16.13;9.25;;;26.60;90.10;;;;;;5027555;28;20261;-54
2023/01/18 12:18:55;;;;;;;18.42;9.75;;;26.60;90.20;;;;;;5035616;28;20028;-53
2023/01/18 12:21:34;;;;;;;18.15;9.68;;;26.60;90.30;;;;;;5047427;28;20061;-53
2023/01/18 12:24:22;;;;;;;15.93;9.75;;;26.60;90.30;;;;;;5046814;28;20020;-50
2023/01/18 12:26:55;;;;;;;30.65;10.48;;;26.60;90.40;;;;;;5041677;28;20068;-54
2023/01/18 12:29:33;;;;;;;;;;;26.60;90.50;;;;;;5039745;28;20056;-53
2023/01/18 12:32:23;;;;;;;21.73;9.82;;;26.60;90.40;;;;;;5037051;28;19905;-54
2023/01/18 12:35:15;;;;;;;17.58;9.70;;;26.60;90.40;;;;;;5036531;28;20045;-57
2023/01/18 12:37:58;;;;;;;16.67;9.43;;;26.60;90.40;;;;;;5038488;28;20064;-54
2023/01/18 12:40:52;;;;;;;12.80;9.98;;;26.60;90.60;;;;;;5036470;28;20017;-54
2023/01/18 12:43:24;;;;;;;15.32;10.18;;;26.60;90.50;;;;;;5027281;28;20048;-52
2023/01/18 12:46:01;;;;;;;13.55;9.55;;;26.60;90.60;;;;;;5027330;28;20022;-52
2023/01/18 12:49:00;;;;;;;15.43;9.57;;;26.60;90.50;;;;;;5027295;28;20281;-51
2023/01/18 12:51:33;;;;;;;15.43;9.30;;;26.60;90.60;;;;;;5016262;28;20034;-53
2023/01/18 12:54:17;;;;;;;13.10;9.77;;;26.60;90.60;;;;;;5038024;28;20029;-59
2023/01/18 12:56:51;;;;;;;13.93;9.38;;;26.60;90.70;;;;;;5036742;28;20021;-52
2023/01/18 12:59:21;;;;;;;12.95;9.77;;;26.60;90.70;;;;;;5033189;28;20313;-52
2023/01/18 13:01:55;;;;;;;16.90;10.07;;;26.70;90.80;;;;;;5033423;28;20030;-58
2023/01/18 13:04:32;;;;;;;15.40;11.00;;;26.70;90.70;;;;;;5033236;28;20080;-53
2023/01/18 13:07:12;;;;;;;14.38;10.73;;;26.70;90.70;;;;;;5037154;28;20037;-60
2023/01/18 13:09:45;;;;;;;14.85;10.10;;;26.60;90.60;;;;;;5045978;28;20028;-52
2023/01/18 13:12:12;;;;;;;15.15;9.90;;;26.60;90.70;;;;;;5035685;28;20029;-53
2023/01/18 13:14:53;;;;;;;16.02;10.55;;;26.70;90.80;;;;;;5034265;28;20030;-54
2023/01/18 13:17:22;;;;;;;12.15;10.10;;;26.70;90.80;;;;;;5032606;28;20352;-54
2023/01/18 13:19:59;;;;;;;14.02;9.27;;;26.70;90.80;;;;;;5037715;28;20060;-55
2023/01/18 13:22:42;;;;;;;16.95;10.20;;;26.70;90.80;;;;;;5033421;28;20060;-53
2023/01/18 13:25:22;;;;;;;15.18;10.23;;;26.70;90.90;;;;;;5024813;28;20038;-53
2023/01/18 13:27:57;;;;;;;13.60;9.45;;;26.70;90.90;;;;;;5026281;28;20054;-53
2023/01/18 13:30:24;;;;;;;15.55;10.10;;;26.70;90.90;;;;;;5025938;28;20117;-56
2023/01/18 13:32:52;;;;;;;18.48;10.07;;;26.70;91.00;;;;;;5032237;28;20032;-53
2023/01/18 13:35:32;;;;;;;15.27;10.10;;;26.80;91.10;;;;;;5030729;28;20333;-54
2023/01/18 13:38:12;;;;;;;31.38;11.30;;;26.80;91.10;;;;;;5031510;28;20022;-53
2023/01/18 13:40:53;;;;;;;27.70;10.68;;;26.80;91.00;;;;;;5032944;28;20026;-53
2023/01/18 13:43:36;;;;;;;22.55;10.10;;;26.80;91.00;;;;;;5037909;28;20241;-54